Terminal Aerodrome Forecast
Issued by NWS

Home | Current Version | Previous Version | Text Only | Print | Product List | Glossary On
Versions: 1 2 3 4 5 6 7 8 9 10 11 12 13
726
FTUS44 KEPZ 050529
TAFTCS
TAF
KTCS 050529Z 0506/0606 29007KT P6SM SKC
     FM051600 16010KT P6SM FEW080 SCT250
     FM052200 17013G21KT P6SM SCT080 BKN150
     FM060300 21008KT P6SM SCT100=

USA.gov is the U.S. government's official web portal to all federal, state and local government web resources and services.